Time;durP1;ratioP1;P1;durP2;ratioP2;P2;SDS_P1;SDS_P2;PMS_P1;PMS_P2;Temp;Humidity;BMP_temperature;BMP_pressure;BME280_temperature;BME280_humidity;BME280_pressure;Samples;Min_cycle;Max_cycle;Signal;HPM_P1;HPM_P2
2022/11/09 00:02:00;;;;;;;37.40;17.00;;;;;;;8.92;89.12;100166.84;103597;1287;22457;-61
2022/11/09 00:04:31;;;;;;;37.90;16.00;;;;;;;8.91;89.17;100164.19;103701;1282;24254;-60
2022/11/09 00:07:03;;;;;;;39.20;18.70;;;;;;;8.89;89.21;100165.96;103538;1280;25365;-60
2022/11/09 00:09:34;;;;;;;38.90;17.00;;;;;;;8.87;89.19;100171.20;103551;1294;24442;-61
2022/11/09 00:12:07;;;;;;;33.40;16.70;;;;;;;8.87;89.38;100172.58;103598;1289;22465;-61
2022/11/09 00:14:38;;;;;;;37.40;16.70;;;;;;;8.86;89.30;100162.41;103722;1305;24259;-61
2022/11/09 00:17:11;;;;;;;36.50;18.20;;;;;;;8.85;89.30;100167.64;103654;1278;25444;-60
2022/11/09 00:19:42;;;;;;;37.70;17.40;;;;;;;8.84;89.52;100166.00;103573;1304;24282;-60
2022/11/09 00:22:13;;;;;;;39.10;17.00;;;;;;;8.85;89.37;100156.70;103574;1282;22466;-60
2022/11/09 00:24:46;;;;;;;40.90;18.90;;;;;;;8.84;89.57;100157.68;103598;1304;22480;-62
2022/11/09 00:27:18;;;;;;;39.30;17.90;;;;;;;8.84;89.44;100155.67;103667;1287;22465;-61
2022/11/09 00:29:50;;;;;;;38.00;18.40;;;;;;;8.83;89.42;100153.58;103695;1304;22595;-61
2022/11/09 00:32:21;;;;;;;43.60;18.60;;;;;;;8.83;89.63;100153.89;103637;1306;22471;-61
2022/11/09 00:34:53;;;;;;;37.00;17.40;;;;;;;8.82;89.23;100160.63;104186;1296;22492;-60
2022/11/09 00:37:24;;;;;;;43.30;18.50;;;;;;;8.79;89.27;100166.08;104172;1280;22509;-61
2022/11/09 00:39:55;;;;;;;39.30;18.30;;;;;;;8.76;89.00;100160.02;103588;1304;24291;-59
2022/11/09 00:42:28;;;;;;;39.90;17.90;;;;;;;8.72;88.61;100165.64;103635;1287;22480;-61
2022/11/09 00:44:59;;;;;;;41.30;18.50;;;;;;;8.68;88.68;100166.45;103794;1283;25219;-62
2022/11/09 00:47:31;;;;;;;42.90;18.70;;;;;;;8.65;88.42;100168.77;103805;1273;26353;-60
2022/11/09 00:50:03;;;;;;;39.50;18.00;;;;;;;8.61;88.45;100167.98;103704;1285;22576;-60
2022/11/09 00:52:35;;;;;;;41.80;19.30;;;;;;;8.57;88.32;100158.22;103538;1290;25222;-60
2022/11/09 00:55:08;;;;;;;40.20;20.00;;;;;;;8.52;88.25;100156.16;103605;1280;22417;-60
2022/11/09 00:57:39;;;;;;;43.50;21.20;;;;;;;8.46;88.13;100149.34;103642;1280;24311;-61
2022/11/09 01:00:13;;;;;;;45.10;20.00;;;;;;;8.42;88.12;100146.30;103606;1303;25251;-65
2022/11/09 01:02:45;;;;;;;42.50;20.40;;;;;;;8.36;87.74;100151.31;103732;1295;25420;-59
2022/11/09 01:05:17;;;;;;;46.70;21.60;;;;;;;8.29;87.47;100161.73;103683;1288;24372;-60
2022/11/09 01:07:49;;;;;;;41.70;21.20;;;;;;;8.19;87.55;100164.52;103637;1297;22778;-59
2022/11/09 01:10:22;;;;;;;43.90;20.40;;;;;;;8.12;87.65;100160.64;103506;1281;22466;-59
2022/11/09 01:12:54;;;;;;;45.50;21.10;;;;;;;8.09;87.95;100156.93;103713;1280;22458;-60
2022/11/09 01:15:27;;;;;;;47.80;21.40;;;;;;;8.07;88.03;100148.77;103772;1275;22462;-60
2022/11/09 01:18:01;;;;;;;49.50;22.50;;;;;;;8.03;87.84;100149.02;103732;1306;25352;-60
2022/11/09 01:20:32;;;;;;;43.60;20.60;;;;;;;8.01;87.99;100145.48;103841;1278;24230;-60
2022/11/09 01:23:06;;;;;;;40.90;19.50;;;;;;;7.97;87.61;100150.27;103726;1281;25389;-61
2022/11/09 01:25:38;;;;;;;47.10;20.90;;;;;;;7.93;87.77;100150.20;103656;1285;26531;-60
2022/11/09 01:28:11;;;;;;;43.00;19.60;;;;;;;7.90;87.74;100148.96;103628;1281;22495;-60
2022/11/09 01:30:43;;;;;;;38.10;17.60;;;;;;;7.87;87.72;100149.03;103566;1291;25229;-60
2022/11/09 01:33:14;;;;;;;42.00;19.60;;;;;;;7.84;87.59;100151.68;103654;1301;22477;-59
2022/11/09 01:35:46;;;;;;;40.90;19.60;;;;;;;7.80;87.37;100154.89;103478;1304;22469;-59
2022/11/09 01:38:17;;;;;;;38.50;18.90;;;;;;;7.76;87.63;100156.09;103731;1303;22512;-62
2022/11/09 01:40:49;;;;;;;42.00;19.30;;;;;;;7.74;87.57;100142.45;103668;1304;22480;-59
2022/11/09 01:43:22;;;;;;;40.20;19.60;;;;;;;7.72;87.58;100137.22;103617;1303;22476;-60
2022/11/09 01:45:58;;;;;;;44.80;21.50;;;;;;;7.68;87.77;100136.33;103835;1289;22549;-60
2022/11/09 01:48:37;;;;;;;47.20;20.10;;;;;;;7.66;87.59;100132.45;103730;1304;25258;-60
2022/11/09 01:51:15;;;;;;;41.30;19.60;;;;;;;7.63;87.52;100133.84;103681;1287;22578;-61
2022/11/09 01:53:50;;;;;;;42.70;20.60;;;;;;;7.60;87.62;100134.00;103594;1304;22425;-59
2022/11/09 01:56:22;;;;;;;41.00;19.20;;;;;;;7.55;87.61;100130.57;103504;1280;22465;-62
2022/11/09 01:58:59;;;;;;;42.70;19.10;;;;;;;7.51;87.66;100125.19;103607;1305;22513;-60
2022/11/09 02:01:31;;;;;;;45.50;21.60;;;;;;;7.49;87.66;100121.66;103649;1288;25244;-60
2022/11/09 02:04:08;;;;;;;39.80;19.40;;;;;;;7.46;87.45;100125.61;103552;1304;24162;-60
2022/11/09 02:06:39;;;;;;;46.60;20.60;;;;;;;7.43;87.65;100121.23;103586;1304;22487;-60
2022/11/09 02:09:19;;;;;;;41.70;20.10;;;;;;;7.42;87.78;100118.67;103630;1296;23506;-60
2022/11/09 02:11:51;;;;;;;39.10;18.70;;;;;;;7.41;87.79;100115.30;103640;1304;25283;-61
2022/11/09 02:14:26;;;;;;;39.30;19.40;;;;;;;7.39;87.75;100120.36;103730;1301;22444;-59
2022/11/09 02:16:58;;;;;;;43.10;19.00;;;;;;;7.37;87.80;100122.02;103840;1286;25266;-60
2022/11/09 02:19:30;;;;;;;42.60;20.30;;;;;;;7.36;87.76;100117.08;103668;1282;22468;-60
2022/11/09 02:22:03;;;;;;;39.10;20.40;;;;;;;7.34;87.89;100120.37;103681;1277;22488;-60
2022/11/09 02:24:36;;;;;;;43.60;21.30;;;;;;;7.34;87.78;100118.34;103767;1303;23295;-62
2022/11/09 02:27:08;;;;;;;41.90;19.00;;;;;;;7.32;87.63;100126.76;103657;1298;22803;-61
2022/11/09 02:29:41;;;;;;;41.70;19.60;;;;;;;7.30;87.82;100120.95;103753;1304;25385;-60
2022/11/09 02:32:18;;;;;;;45.50;20.90;;;;;;;7.29;87.71;100124.06;103649;1290;22462;-60
2022/11/09 02:34:50;;;;;;;47.20;21.30;;;;;;;7.26;87.85;100125.08;103618;1279;22679;-59
2022/11/09 02:37:30;;;;;;;42.90;21.20;;;;;;;7.26;87.91;100125.83;103669;1288;22897;-60
2022/11/09 02:40:04;;;;;;;39.90;19.60;;;;;;;7.23;87.90;100120.60;103665;1304;22473;-61
2022/11/09 02:42:36;;;;;;;45.60;21.50;;;;;;;7.22;87.89;100119.36;104669;1304;22469;-61
2022/11/09 02:45:09;;;;;;;44.70;19.30;;;;;;;7.22;88.06;100124.50;103723;1303;25597;-61
2022/11/09 02:47:41;;;;;;;47.10;19.70;;;;;;;7.21;88.04;100128.63;103710;1304;22453;-61
2022/11/09 02:50:12;;;;;;;42.30;20.50;;;;;;;7.20;88.07;100132.31;103709;1304;22480;-60
2022/11/09 02:52:44;;;;;;;43.90;20.30;;;;;;;7.17;88.15;100123.30;103668;1303;22728;-60
2022/11/09 02:55:16;;;;;;;43.00;20.40;;;;;;;7.17;88.09;100126.35;103745;1303;22483;-61
2022/11/09 02:57:48;;;;;;;45.10;20.60;;;;;;;7.15;88.26;100122.67;103730;1295;22410;-60
2022/11/09 03:00:19;;;;;;;47.80;21.50;;;;;;;7.14;88.27;100125.58;103697;1304;22479;-59
2022/11/09 03:02:51;;;;;;;43.50;20.20;;;;;;;7.14;88.47;100123.29;103783;1304;26384;-60
2022/11/09 03:05:22;;;;;;;44.60;21.10;;;;;;;7.13;88.44;100122.45;103664;1273;22424;-60
2022/11/09 03:07:55;;;;;;;43.70;19.70;;;;;;;7.10;88.36;100130.10;103681;1280;22477;-60
2022/11/09 03:10:27;;;;;;;42.40;19.30;;;;;;;7.08;88.44;100132.74;103647;1305;22468;-60
2022/11/09 03:12:58;;;;;;;45.70;20.40;;;;;;;7.07;88.72;100131.19;103683;1281;25479;-61
2022/11/09 03:15:30;;;;;;;41.40;19.20;;;;;;;7.06;88.79;100131.23;103711;1304;23883;-60
2022/11/09 03:18:01;;;;;;;46.50;21.50;;;;;;;7.05;88.74;100125.40;103735;1303;22470;-59
2022/11/09 03:20:33;;;;;;;48.50;24.00;;;;;;;7.04;88.87;100124.08;103976;1284;23209;-60
2022/11/09 03:23:04;;;;;;;46.80;21.60;;;;;;;7.04;88.84;100118.88;103644;1280;22769;-60
2022/11/09 03:25:36;;;;;;;45.30;21.30;;;;;;;7.03;88.79;100125.58;103704;1290;25531;-61
2022/11/09 03:28:09;;;;;;;43.00;20.40;;;;;;;7.03;88.71;100132.80;103752;1281;25574;-60
2022/11/09 03:30:40;;;;;;;46.90;21.40;;;;;;;7.03;88.72;100136.19;103666;1303;22471;-60
2022/11/09 03:33:13;;;;;;;50.40;20.30;;;;;;;7.03;88.75;100139.66;103699;1297;22904;-61
2022/11/09 03:35:44;;;;;;;43.50;21.00;;;;;;;7.03;88.67;100148.40;103786;1280;25430;-60
2022/11/09 03:38:15;;;;;;;46.40;21.00;;;;;;;7.03;88.80;100140.71;103687;1303;22496;-60
2022/11/09 03:40:46;;;;;;;41.70;19.80;;;;;;;7.03;88.80;100142.16;103700;1304;22472;-61
2022/11/09 03:43:18;;;;;;;41.40;20.60;;;;;;;7.02;88.72;100138.16;103583;1281;24274;-60
2022/11/09 03:45:49;;;;;;;50.70;22.70;;;;;;;7.01;88.81;100148.11;103634;1304;22580;-61
2022/11/09 03:48:21;;;;;;;50.10;21.80;;;;;;;6.97;88.79;100143.31;103790;1304;26670;-61
2022/11/09 03:50:52;;;;;;;51.80;24.40;;;;;;;6.95;88.78;100140.40;103813;1283;25383;-60
2022/11/09 03:53:23;;;;;;;52.40;24.30;;;;;;;6.90;88.55;100138.38;103742;1280;24265;-61
2022/11/09 03:55:57;;;;;;;50.20;22.50;;;;;;;6.86;88.61;100139.25;103610;1291;22484;-60
2022/11/09 03:58:28;;;;;;;47.10;20.80;;;;;;;6.84;88.75;100134.08;103680;1305;25363;-61
2022/11/09 04:00:59;;;;;;;48.80;20.60;;;;;;;6.84;88.85;100135.06;103725;1304;24220;-62
2022/11/09 04:03:31;;;;;;;43.90;21.50;;;;;;;6.82;88.89;100133.30;103667;1303;22462;-61
2022/11/09 04:06:03;;;;;;;46.50;21.70;;;;;;;6.81;88.94;100129.67;103756;1303;23659;-60
2022/11/09 04:08:35;;;;;;;47.90;20.20;;;;;;;6.80;88.97;100129.64;103736;1284;23087;-60
2022/11/09 04:11:06;;;;;;;44.00;19.50;;;;;;;6.79;89.02;100125.88;103709;1303;22421;-61
2022/11/09 04:13:37;;;;;;;47.80;21.40;;;;;;;6.78;89.06;100125.45;104562;1280;22483;-60
2022/11/09 04:16:10;;;;;;;46.30;20.20;;;;;;;6.76;89.04;100124.82;103677;1301;24389;-60
2022/11/09 04:18:41;;;;;;;48.70;22.20;;;;;;;6.75;88.94;100123.77;103691;1273;22494;-59
2022/11/09 04:21:13;;;;;;;49.30;20.90;;;;;;;6.74;88.99;100120.80;103769;1304;22480;-60
2022/11/09 04:23:44;;;;;;;45.70;19.50;;;;;;;6.73;88.95;100119.73;103736;1289;24305;-61
2022/11/09 04:26:16;;;;;;;45.30;19.60;;;;;;;6.71;89.06;100119.15;103729;1280;22476;-59
2022/11/09 04:28:48;;;;;;;46.70;22.40;;;;;;;6.69;89.10;100114.80;103780;1305;22599;-60
2022/11/09 04:31:19;;;;;;;45.40;20.40;;;;;;;6.67;89.21;100112.73;103704;1296;23085;-60
2022/11/09 04:33:52;;;;;;;44.00;20.40;;;;;;;6.67;89.25;100116.14;103733;1281;22474;-62
2022/11/09 04:36:25;;;;;;;51.80;22.50;;;;;;;6.66;89.19;100114.61;103773;1291;22466;-61
2022/11/09 04:38:57;;;;;;;42.60;20.80;;;;;;;6.65;89.27;100113.55;103892;1289;24508;-61
2022/11/09 04:41:29;;;;;;;45.50;19.80;;;;;;;6.63;89.23;100120.10;103955;1282;23218;-60
2022/11/09 04:44:00;;;;;;;48.90;22.30;;;;;;;6.62;89.32;100119.59;103811;1281;24257;-62
2022/11/09 04:46:32;;;;;;;49.30;22.80;;;;;;;6.60;89.25;100123.06;103824;1279;25337;-60
2022/11/09 04:49:04;;;;;;;47.20;20.60;;;;;;;6.57;89.24;100120.98;104507;1279;26660;-61
2022/11/09 04:51:35;;;;;;;46.30;22.30;;;;;;;6.56;89.23;100121.65;103947;1297;22469;-62
2022/11/09 04:54:07;;;;;;;50.20;21.60;;;;;;;6.56;89.28;100121.17;103695;1279;22458;-60
2022/11/09 04:56:40;;;;;;;50.30;22.60;;;;;;;6.54;89.29;100117.04;103631;1291;22538;-58
2022/11/09 04:59:11;;;;;;;48.50;22.40;;;;;;;6.52;89.32;100113.14;103688;1291;22463;-60
2022/11/09 05:01:42;;;;;;;46.80;21.60;;;;;;;6.51;89.31;100108.52;103847;1306;24385;-60
2022/11/09 05:04:14;;;;;;;45.20;20.80;;;;;;;6.49;89.30;100103.27;103693;1288;22516;-60
2022/11/09 05:06:45;;;;;;;49.50;22.50;;;;;;;6.48;89.37;100098.95;103890;1304;23892;-60
2022/11/09 05:09:16;;;;;;;47.10;21.00;;;;;;;6.46;89.51;100098.23;103729;1304;22461;-60
2022/11/09 05:11:48;;;;;;;42.60;21.40;;;;;;;6.45;89.68;100098.36;103925;1282;24287;-60
2022/11/09 05:14:19;;;;;;;49.80;21.00;;;;;;;6.44;89.68;100101.98;103630;1281;25694;-61
2022/11/09 05:16:50;;;;;;;47.10;21.60;;;;;;;6.42;89.81;100105.13;103689;1274;22889;-62
2022/11/09 05:19:22;;;;;;;46.00;21.30;;;;;;;6.41;89.87;100104.52;103736;1281;22463;-61
2022/11/09 05:21:54;;;;;;;44.90;20.80;;;;;;;6.41;90.06;100109.45;103450;1305;24274;-62
2022/11/09 05:24:26;;;;;;;42.70;20.90;;;;;;;6.41;90.16;100110.50;103796;1290;22491;-61
2022/11/09 05:26:58;;;;;;;49.30;22.20;;;;;;;6.41;90.18;100106.05;103576;1304;22499;-59
2022/11/09 05:29:29;;;;;;;46.30;21.80;;;;;;;6.42;90.23;100103.73;103792;1281;22480;-62
2022/11/09 05:32:01;;;;;;;46.30;22.20;;;;;;;6.43;90.30;100114.70;103452;1284;22427;-61
2022/11/09 05:34:32;;;;;;;46.20;22.40;;;;;;;6.44;90.29;100113.06;104473;1290;22596;-62
2022/11/09 05:37:04;;;;;;;49.40;20.90;;;;;;;6.44;90.37;100111.94;103586;1274;22496;-61
2022/11/09 05:39:35;;;;;;;43.90;19.60;;;;;;;6.45;90.34;100105.26;104248;1303;22524;-60
2022/11/09 05:42:09;;;;;;;42.90;19.50;;;;;;;6.44;90.49;100106.39;103725;1290;22510;-61
2022/11/09 05:44:41;;;;;;;47.00;21.30;;;;;;;6.45;90.57;100104.08;103640;1305;23971;-62
2022/11/09 05:47:13;;;;;;;45.30;21.00;;;;;;;6.46;90.62;100104.33;103665;1274;25232;-61
2022/11/09 05:49:45;;;;;;;50.00;21.90;;;;;;;6.46;90.73;100103.80;103465;1281;24372;-61
2022/11/09 05:52:17;;;;;;;50.50;23.00;;;;;;;6.47;90.72;100102.34;103903;1303;22490;-61
2022/11/09 05:54:50;;;;;;;50.10;21.40;;;;;;;6.47;90.83;100103.05;103769;1283;22467;-60
2022/11/09 05:57:22;;;;;;;49.90;22.60;;;;;;;6.47;90.78;100109.06;103712;1303;22616;-60
2022/11/09 05:59:55;;;;;;;48.00;21.10;;;;;;;6.48;90.79;100109.09;103882;1297;22431;-63
2022/11/09 06:02:30;;;;;;;53.40;23.10;;;;;;;6.49;90.70;100110.66;104001;1303;22477;-62
2022/11/09 06:05:01;;;;;;;52.50;22.20;;;;;;;6.49;90.69;100113.27;103688;1279;25374;-62
2022/11/09 06:07:34;;;;;;;51.30;23.70;;;;;;;6.49;90.74;100115.23;103707;1281;22462;-61
2022/11/09 06:10:06;;;;;;;48.30;21.70;;;;;;;6.49;90.68;100115.27;103741;1282;22490;-60
2022/11/09 06:12:38;;;;;;;54.00;23.60;;;;;;;6.47;90.74;100115.31;103725;1303;22624;-59
2022/11/09 06:15:11;;;;;;;45.80;19.70;;;;;;;6.47;90.77;100117.38;103705;1279;25223;-60
2022/11/09 06:17:43;;;;;;;50.90;21.50;;;;;;;6.47;90.79;100113.01;103715;1298;24972;-62
2022/11/09 06:20:15;;;;;;;48.50;20.40;;;;;;;6.47;90.64;100110.66;103655;1289;22473;-61
2022/11/09 06:22:52;;;;;;;47.40;20.30;;;;;;;6.46;90.69;100109.91;103716;1304;23228;-59
2022/11/09 06:25:25;;;;;;;51.40;21.90;;;;;;;6.46;90.65;100118.23;103799;1281;22518;-60
2022/11/09 06:27:57;;;;;;;45.10;20.50;;;;;;;6.45;90.67;100123.56;103607;1296;25402;-60
2022/11/09 06:30:29;;;;;;;49.90;21.20;;;;;;;6.44;90.71;100121.61;103715;1303;24125;-61
2022/11/09 06:33:05;;;;;;;47.30;21.10;;;;;;;6.45;90.69;100120.02;104949;1298;24270;-61
2022/11/09 06:35:37;;;;;;;47.40;20.80;;;;;;;6.44;90.81;100121.38;103815;1303;25369;-59
2022/11/09 06:38:11;;;;;;;47.80;21.90;;;;;;;6.43;90.61;100123.48;103729;1297;22520;-58
2022/11/09 06:40:43;;;;;;;48.50;22.20;;;;;;;6.40;90.85;100130.30;103707;1303;22484;-61
2022/11/09 06:43:15;;;;;;;55.20;23.20;;;;;;;6.38;90.83;100135.77;103593;1289;25223;-59
2022/11/09 06:45:47;;;;;;;52.90;23.30;;;;;;;6.37;90.81;100134.38;103765;1303;25339;-61
2022/11/09 06:48:19;;;;;;;58.00;25.30;;;;;;;6.38;90.86;100142.15;103791;1281;24353;-61
2022/11/09 06:50:51;;;;;;;52.20;24.30;;;;;;;6.37;90.86;100146.66;103750;1289;22627;-60
2022/11/09 06:53:23;;;;;;;48.90;22.80;;;;;;;6.37;90.91;100142.34;103666;1297;24315;-60
2022/11/09 06:55:57;;;;;;;51.90;22.70;;;;;;;6.36;90.83;100147.66;104370;1303;24421;-61
2022/11/09 06:58:31;;;;;;;48.10;22.60;;;;;;;6.37;90.93;100147.98;104009;1303;25830;-60
2022/11/09 07:01:06;;;;;;;55.10;24.80;;;;;;;6.36;90.98;100140.30;103763;1304;22884;-62
2022/11/09 07:03:39;;;;;;;53.20;25.50;;;;;;;6.36;90.96;100133.09;103670;1303;25363;-60
2022/11/09 07:06:14;;;;;;;56.10;25.90;;;;;;;6.35;90.96;100131.13;103819;1274;22578;-61
2022/11/09 07:08:45;;;;;;;53.30;23.10;;;;;;;6.35;91.13;100136.01;103786;1304;22815;-61
2022/11/09 07:11:18;;;;;;;54.20;24.50;;;;;;;6.35;91.28;100128.09;103749;1303;24537;-60
2022/11/09 07:13:51;;;;;;;58.50;25.00;;;;;;;6.35;91.46;100128.40;103764;1303;24253;-61
2022/11/09 07:16:22;;;;;;;47.60;23.10;;;;;;;6.36;91.46;100134.59;103718;1302;25403;-61
2022/11/09 07:18:54;;;;;;;50.50;22.10;;;;;;;6.38;91.54;100131.77;103771;1303;22465;-60
2022/11/09 07:21:26;;;;;;;53.00;23.30;;;;;;;6.39;91.69;100125.86;103765;1298;22481;-60
2022/11/09 07:23:59;;;;;;;53.80;24.40;;;;;;;6.39;91.90;100119.71;103784;1303;22521;-61
2022/11/09 07:26:30;;;;;;;50.70;24.70;;;;;;;6.40;92.09;100130.95;103816;1303;22454;-61
2022/11/09 07:29:02;;;;;;;60.10;27.60;;;;;;;6.42;92.15;100129.93;103761;1303;23985;-60
2022/11/09 07:31:33;;;;;;;52.90;24.70;;;;;;;6.44;92.25;100122.08;103645;1290;22919;-60
2022/11/09 07:34:05;;;;;;;55.60;26.20;;;;;;;6.47;92.49;100121.41;103677;1302;25405;-60
2022/11/09 07:36:37;;;;;;;55.10;25.30;;;;;;;6.50;92.73;100122.25;103723;1280;22475;-62
2022/11/09 07:39:09;;;;;;;60.70;27.10;;;;;;;6.53;93.00;100125.70;103716;1273;26548;-62
2022/11/09 07:41:40;;;;;;;59.10;25.10;;;;;;;6.56;92.97;100140.01;103758;1303;24376;-61
2022/11/09 07:44:16;;;;;;;51.80;24.50;;;;;;;6.60;93.10;100145.10;103773;1291;26544;-62
2022/11/09 07:46:49;;;;;;;59.10;24.60;;;;;;;6.65;93.28;100150.32;103635;1303;22675;-61
2022/11/09 07:49:21;;;;;;;61.30;26.00;;;;;;;6.68;93.44;100149.13;103706;1281;23249;-59
2022/11/09 07:51:52;;;;;;;57.20;26.20;;;;;;;6.73;93.37;100151.04;103686;1295;22528;-61
2022/11/09 07:54:25;;;;;;;61.50;27.80;;;;;;;6.77;93.55;100151.13;103749;1303;24292;-61
2022/11/09 07:56:57;;;;;;;56.80;26.60;;;;;;;6.81;93.80;100152.15;103674;1303;23948;-61
2022/11/09 07:59:28;;;;;;;62.30;27.30;;;;;;;6.86;94.03;100148.36;103595;1303;22490;-60
2022/11/09 08:02:00;;;;;;;60.80;28.40;;;;;;;6.92;94.09;100145.27;103637;1281;25065;-61
2022/11/09 08:04:32;;;;;;;59.90;26.30;;;;;;;6.99;94.37;100141.65;103684;1282;24473;-61
2022/11/09 08:07:05;;;;;;;64.00;28.70;;;;;;;7.06;94.52;100126.88;103603;1302;22476;-61
2022/11/09 08:09:36;;;;;;;56.00;26.90;;;;;;;7.14;94.82;100127.12;103651;1301;22493;-60
2022/11/09 08:12:08;;;;;;;58.10;26.90;;;;;;;7.22;95.11;100127.48;103635;1304;22491;-62
2022/11/09 08:14:40;;;;;;;59.50;25.60;;;;;;;7.31;94.99;100126.45;103687;1303;22486;-61
2022/11/09 08:17:12;;;;;;;59.70;26.10;;;;;;;7.40;95.39;100129.45;103722;1279;24365;-61
2022/11/09 08:19:44;;;;;;;55.60;27.90;;;;;;;7.51;95.72;100137.56;103628;1304;22479;-59
2022/11/09 08:22:16;;;;;;;66.40;29.20;;;;;;;7.61;95.85;100138.79;103598;1304;22476;-60
2022/11/09 08:24:48;;;;;;;65.20;29.90;;;;;;;7.71;95.95;100139.54;103680;1302;22629;-61
2022/11/09 08:27:21;;;;;;;54.80;26.10;;;;;;;7.82;96.19;100134.84;103579;1303;22478;-61
2022/11/09 08:29:53;;;;;;;62.10;27.30;;;;;;;7.93;96.42;100134.64;103639;1303;22484;-62
2022/11/09 08:32:24;;;;;;;66.50;28.60;;;;;;;8.04;96.45;100137.89;103848;1279;24294;-61
2022/11/09 08:34:57;;;;;;;63.90;26.90;;;;;;;8.15;96.62;100137.27;103717;1303;24290;-61
2022/11/09 08:37:29;;;;;;;57.00;24.00;;;;;;;8.27;96.49;100131.38;103797;1280;22465;-61
2022/11/09 08:40:01;;;;;;;52.60;24.50;;;;;;;8.40;96.65;100130.07;103586;1303;22585;-61
2022/11/09 08:42:33;;;;;;;53.00;24.80;;;;;;;8.55;96.48;100126.85;103640;1303;23894;-60
2022/11/09 08:45:05;;;;;;;60.00;25.20;;;;;;;8.70;96.52;100127.95;103704;1304;24313;-59
2022/11/09 08:47:37;;;;;;;52.10;23.30;;;;;;;8.83;96.47;100134.65;103771;1302;25700;-62
2022/11/09 08:50:11;;;;;;;52.80;21.80;;;;;;;8.98;96.14;100134.34;103637;1281;22464;-61
2022/11/09 08:52:43;;;;;;;48.60;22.30;;;;;;;9.11;95.77;100130.44;103664;1302;22472;-62
2022/11/09 08:55:15;;;;;;;44.70;20.50;;;;;;;9.22;95.64;100126.40;103583;1290;22422;-60
2022/11/09 08:57:47;;;;;;;52.90;22.50;;;;;;;9.36;95.51;100134.79;103528;1295;22471;-60
2022/11/09 09:00:21;;;;;;;47.90;22.20;;;;;;;9.48;95.49;100139.83;103631;1283;22460;-62
2022/11/09 09:02:53;;;;;;;48.30;21.70;;;;;;;9.61;95.28;100131.07;104409;1277;26564;-61
2022/11/09 09:05:25;;;;;;;43.50;20.50;;;;;;;9.73;95.30;100130.67;103954;1277;24304;-61
2022/11/09 09:07:58;;;;;;;48.30;21.20;;;;;;;9.86;95.04;100129.80;103555;1303;22487;-60
2022/11/09 09:10:34;;;;;;;47.70;21.70;;;;;;;9.95;95.04;100130.76;103604;1303;25447;-62
2022/11/09 09:13:06;;;;;;;50.50;21.50;;;;;;;10.06;94.90;100135.73;103691;1277;22475;-61
2022/11/09 09:15:37;;;;;;;43.50;19.50;;;;;;;10.18;94.76;100139.65;103700;1303;22410;-61
2022/11/09 09:18:09;;;;;;;40.80;18.60;;;;;;;10.29;94.70;100142.59;103680;1274;25277;-62
2022/11/09 09:20:41;;;;;;;46.10;19.50;;;;;;;10.39;94.59;100147.80;103571;1303;25445;-63
2022/11/09 09:23:14;;;;;;;46.90;19.00;;;;;;;10.49;94.18;100147.39;103707;1281;23065;-60
2022/11/09 09:25:46;;;;;;;41.00;19.80;;;;;;;10.59;94.04;100142.88;103517;1297;23211;-62
2022/11/09 09:28:18;;;;;;;44.50;19.50;;;;;;;10.69;94.15;100138.98;103520;1273;22534;-61
2022/11/09 09:30:49;;;;;;;40.10;19.50;;;;;;;10.78;93.79;100142.13;103537;1303;24148;-62
2022/11/09 09:33:21;;;;;;;38.20;17.40;;;;;;;10.88;93.74;100142.35;103704;1297;22524;-61
2022/11/09 09:35:52;;;;;;;48.60;19.70;;;;;;;10.95;93.57;100144.39;103608;1303;22469;-60
2022/11/09 09:38:24;;;;;;;40.60;16.90;;;;;;;11.04;93.29;100145.66;103591;1281;22467;-61
2022/11/09 09:41:00;;;;;;;40.70;17.60;;;;;;;11.13;92.86;100145.34;103631;1303;25367;-62
2022/11/09 09:43:36;;;;;;;40.90;16.60;;;;;;;11.22;92.71;100147.09;103533;1304;24237;-62
2022/11/09 09:46:15;;;;;;;38.10;17.30;;;;;;;11.30;92.38;100148.84;103580;1273;22468;-62
2022/11/09 09:48:50;;;;;;;39.50;18.60;;;;;;;11.38;92.30;100150.27;103549;1303;24933;-62
2022/11/09 09:51:41;;;;;;;40.50;19.40;;;;;;;11.44;91.97;100148.68;103630;1278;22468;-61
2022/11/09 09:54:19;;;;;;;39.60;17.90;;;;;;;11.53;92.11;100158.75;103593;1297;23265;-61
2022/11/09 09:56:53;;;;;;;38.90;17.40;;;;;;;11.60;92.03;100152.91;103624;1303;25384;-63
2022/11/09 09:59:35;;;;;;;37.70;16.70;;;;;;;11.66;91.65;100150.30;103502;1274;22507;-63
2022/11/09 10:02:18;;;;;;;39.50;18.00;;;;;;;11.71;91.10;100144.25;103611;1297;24775;-62
2022/11/09 10:04:51;;;;;;;39.00;18.90;;;;;;;11.78;90.78;100143.20;103489;1281;25189;-62
2022/11/09 10:07:31;;;;;;;34.30;15.80;;;;;;;11.84;90.83;100145.02;103501;1295;23212;-62
2022/11/09 10:10:16;;;;;;;36.20;15.80;;;;;;;11.89;90.67;100143.09;103542;1304;22473;-62
2022/11/09 10:13:13;;;;;;;36.60;14.70;;;;;;;11.94;90.33;100139.54;103603;1297;22721;-62
2022/11/09 10:15:53;;;;;;;35.00;15.80;;;;;;;11.97;90.25;100133.06;103524;1273;25610;-62
2022/11/09 10:18:37;;;;;;;35.40;16.40;;;;;;;11.99;90.10;100129.88;103505;1281;22461;-62
2022/11/09 10:21:23;;;;;;;33.90;16.00;;;;;;;12.02;89.51;100128.25;103564;1300;24389;-63
2022/11/09 10:24:17;;;;;;;35.90;15.80;;;;;;;12.06;89.15;100130.98;103609;1279;22484;-61
2022/11/09 10:26:51;;;;;;;35.60;15.50;;;;;;;12.09;89.31;100131.83;103276;1297;23079;-62
2022/11/09 10:29:26;;;;;;;36.50;17.00;;;;;;;12.12;89.25;100128.29;103274;1281;22485;-61
2022/11/09 10:32:08;;;;;;;39.10;17.40;;;;;;;12.14;88.92;100126.49;102813;1281;487994;-62
2022/11/09 10:34:46;;;;;;;36.70;16.80;;;;;;;12.16;88.80;100128.34;103155;1299;22498;-61
2022/11/09 10:37:22;;;;;;;36.90;15.50;;;;;;;12.18;88.66;100129.64;103364;1282;24763;-60
2022/11/09 10:39:59;;;;;;;36.90;17.30;;;;;;;12.23;88.67;100131.41;103375;1303;23641;-61
2022/11/09 10:42:32;;;;;;;39.10;19.00;;;;;;;12.30;88.68;100134.70;103637;1303;22462;-61
2022/11/09 10:45:22;;;;;;;35.20;16.60;;;;;;;12.40;88.21;100135.86;103600;1303;22994;-64
2022/11/09 10:47:54;;;;;;;35.60;14.60;;;;;;;12.48;87.71;100142.05;103566;1303;22596;-61
2022/11/09 10:50:33;;;;;;;33.60;15.50;;;;;;;12.54;87.35;100140.18;103420;1283;22481;-62
2022/11/09 10:53:18;;;;;;;40.10;15.30;;;;;;;12.60;87.46;100132.85;103404;1303;24250;-61
2022/11/09 10:55:55;;;;;;;35.80;16.30;;;;;;;12.65;87.06;100130.25;103454;1297;22461;-60
2022/11/09 10:58:33;;;;;;;47.00;22.50;;;;;;;12.72;87.08;100124.36;103374;1279;22513;-61
2022/11/09 11:01:13;;;;;;;41.90;22.60;;;;;;;12.79;86.81;100127.27;103241;1281;22465;-62
2022/11/09 11:03:45;;;;;;;51.60;27.20;;;;;;;12.85;86.52;100131.98;103249;1274;23802;-61
2022/11/09 11:06:27;;;;;;;39.40;19.20;;;;;;;12.89;85.88;100126.13;103260;1297;22464;-62
2022/11/09 11:09:20;;;;;;;43.30;18.60;;;;;;;12.95;86.17;100128.35;103405;1303;22481;-60
2022/11/09 11:12:13;;;;;;;41.60;20.70;;;;;;;13.00;86.00;100125.85;103372;1303;25507;-61
2022/11/09 11:14:46;;;;;;;36.60;17.20;;;;;;;13.07;85.43;100127.75;103403;1279;24349;-60
2022/11/09 11:17:27;;;;;;;38.10;19.20;;;;;;;13.13;84.90;100123.26;103440;1287;25390;-62
2022/11/09 11:20:26;;;;;;;30.30;15.80;;;;;;;13.22;85.04;100120.36;103431;1281;23959;-62
2022/11/09 11:23:12;;;;;;;37.40;17.30;;;;;;;13.33;85.09;100117.63;103371;1298;22467;-62
2022/11/09 11:26:16;;;;;;;33.80;13.70;;;;;;;13.41;84.14;100115.95;103610;1281;22515;-60
2022/11/09 11:28:52;;;;;;;32.50;14.00;;;;;;;13.50;83.52;100118.48;103449;1304;25406;-61
2022/11/09 11:31:23;;;;;;;33.50;15.00;;;;;;;13.54;83.36;100111.92;103228;1282;24548;-61
2022/11/09 11:33:55;;;;;;;34.30;15.90;;;;;;;13.59;82.94;100115.16;103289;1280;22479;-62
2022/11/09 11:36:36;;;;;;;43.70;21.70;;;;;;;13.62;83.20;100116.05;103248;1281;25244;-62